createdAt,value
2018-02-02T00:00:31.906Z,98831.70
2018-02-02T00:02:59.566Z,98829.73
2018-02-02T00:05:27.102Z,98823.33
2018-02-02T00:07:54.635Z,98818.75
2018-02-02T00:10:22.295Z,98820.92
2018-02-02T00:12:49.830Z,98820.15
2018-02-02T00:15:17.370Z,98813.59
2018-02-02T00:17:44.902Z,98820.97
2018-02-02T00:20:12.445Z,98821.01
2018-02-02T00:22:39.984Z,98817.20
2018-02-02T00:25:07.530Z,98817.06
2018-02-02T00:27:35.071Z,98815.80
2018-02-02T00:30:02.630Z,98813.78
2018-02-02T00:32:30.167Z,98816.12
2018-02-02T00:34:57.709Z,98813.44
2018-02-02T00:37:25.242Z,98811.70
2018-02-02T00:39:53.022Z,98812.19
2018-02-02T00:42:20.558Z,98827.14
2018-02-02T00:44:48.258Z,98828.55
2018-02-02T00:47:15.790Z,98835.21
2018-02-02T00:49:43.336Z,98827.91
2018-02-02T00:52:10.909Z,98835.91
2018-02-02T00:54:38.631Z,98826.56
2018-02-02T00:57:06.348Z,98827.78
2018-02-02T00:59:33.905Z,98819.23
2018-02-02T01:02:01.476Z,98810.38
2018-02-02T01:04:29.102Z,98811.91
2018-02-02T01:06:56.722Z,98820.45
2018-02-02T01:09:24.258Z,98817.92
2018-02-02T01:11:51.788Z,98810.09
2018-02-02T01:14:19.471Z,98809.69
2018-02-02T01:16:47.009Z,98811.58
2018-02-02T01:19:14.549Z,98802.88
2018-02-02T01:21:42.086Z,98802.67
2018-02-02T01:24:09.855Z,98803.02
2018-02-02T01:26:37.393Z,98792.70
2018-02-02T01:29:04.933Z,98797.12
2018-02-02T01:31:32.474Z,98774.73
2018-02-02T01:34:00.006Z,98775.19
2018-02-02T01:36:27.551Z,98767.61
2018-02-02T01:38:55.081Z,98754.20
2018-02-02T01:41:22.870Z,98755.77
2018-02-02T01:43:50.489Z,98764.89
2018-02-02T01:46:18.307Z,98763.20
2018-02-02T01:48:45.921Z,98757.85
2018-02-02T01:51:13.614Z,98763.25
2018-02-02T01:53:41.258Z,98751.53
2018-02-02T01:56:09.046Z,98736.27
2018-02-02T01:58:36.699Z,98751.86
2018-02-02T02:01:04.316Z,98739.67
2018-02-02T02:03:31.924Z,98746.76
2018-02-02T02:05:59.453Z,98743.25
2018-02-02T02:08:27.022Z,98738.95
2018-02-02T02:10:54.558Z,98726.36
2018-02-02T02:13:22.150Z,98737.64
2018-02-02T02:15:49.722Z,98742.63
2018-02-02T02:18:17.436Z,98752.90
2018-02-02T02:20:44.977Z,98756.89
2018-02-02T02:23:12.516Z,98761.60
2018-02-02T02:25:40.295Z,98758.71
2018-02-02T02:28:07.834Z,98762.16
2018-02-02T02:30:35.426Z,98757.31
2018-02-02T02:33:03.014Z,98753.21
2018-02-02T02:35:30.551Z,98754.33
2018-02-02T02:37:58.094Z,98762.84
2018-02-02T02:40:25.790Z,98764.52
2018-02-02T02:42:53.337Z,98769.53
2018-02-02T02:45:21.132Z,98772.66
2018-02-02T02:47:48.851Z,98768.14
2018-02-02T02:50:16.386Z,98770.71
2018-02-02T02:52:43.986Z,98774.05
2018-02-02T02:55:11.661Z,98782.91
2018-02-02T02:57:39.198Z,98775.39
2018-02-02T03:00:06.784Z,98777.77
2018-02-02T03:02:34.327Z,98786.19
2018-02-02T03:05:01.920Z,98778.89
2018-02-02T03:07:29.444Z,98783.55
2018-02-02T03:09:57.005Z,98790.45
2018-02-02T03:12:24.551Z,98807.19
2018-02-02T03:14:52.130Z,98805.17
2018-02-02T03:17:19.664Z,98807.92
2018-02-02T03:19:47.202Z,98813.42
2018-02-02T03:22:14.782Z,98822.58
2018-02-02T03:24:42.411Z,98824.77
2018-02-02T03:27:09.933Z,98821.46
2018-02-02T03:29:37.486Z,98825.95
2018-02-02T03:32:05.031Z,98830.98
2018-02-02T03:34:32.646Z,98824.33
2018-02-02T03:37:00.179Z,98820.28
2018-02-02T03:39:27.794Z,98821.33
2018-02-02T03:41:55.364Z,98830.35
2018-02-02T03:44:22.914Z,98840.69
2018-02-02T03:46:50.458Z,98835.83
2018-02-02T03:49:18.170Z,98841.80
2018-02-02T03:51:45.918Z,98842.08
2018-02-02T03:54:13.454Z,98847.50
2018-02-02T03:56:41.001Z,98853.32
2018-02-02T03:59:08.554Z,98842.42
2018-02-02T04:01:36.173Z,98840.28
2018-02-02T04:04:03.722Z,98835.52
2018-02-02T04:06:31.254Z,98844.42
2018-02-02T04:08:58.830Z,98836.50
2018-02-02T04:11:26.361Z,98837.41
2018-02-02T04:13:54.081Z,98831.74
2018-02-02T04:16:21.680Z,98840.11
2018-02-02T04:18:49.365Z,98830.02
2018-02-02T04:21:17.027Z,98833.00
2018-02-02T04:23:44.566Z,98838.80
2018-02-02T04:26:12.098Z,98830.30
2018-02-02T04:28:39.638Z,98827.73
2018-02-02T04:31:07.496Z,98824.83
2018-02-02T04:33:35.214Z,98825.16
2018-02-02T04:36:04.684Z,98829.69
2018-02-02T04:38:32.239Z,98834.33
2018-02-02T04:40:59.765Z,98833.15
2018-02-02T04:43:27.309Z,98831.30
2018-02-02T04:45:54.854Z,98828.99
2018-02-02T04:48:22.454Z,98831.61
2018-02-02T04:50:50.145Z,98815.55
2018-02-02T04:53:17.863Z,98798.12
2018-02-02T04:55:45.582Z,98797.31
2018-02-02T04:58:13.154Z,98803.95
2018-02-02T05:00:40.714Z,98804.74
2018-02-02T05:03:08.337Z,98797.58
2018-02-02T05:05:35.925Z,98791.63
2018-02-02T05:08:03.526Z,98792.77
2018-02-02T05:10:31.288Z,98793.56
2018-02-02T05:12:58.833Z,98788.91
2018-02-02T05:15:26.393Z,98776.78
2018-02-02T05:17:53.972Z,98777.51
2018-02-02T05:20:21.724Z,98768.66
2018-02-02T05:22:49.314Z,98770.14
2018-02-02T05:25:17.002Z,98781.00
2018-02-02T05:27:44.618Z,98770.30
2018-02-02T05:30:12.289Z,98777.09
2018-02-02T05:32:40.005Z,98776.18
2018-02-02T05:35:07.594Z,98784.53
2018-02-02T05:37:35.134Z,98778.45
2018-02-02T05:40:02.721Z,98785.81
2018-02-02T05:42:30.311Z,98787.63
2018-02-02T05:44:57.951Z,98798.89
2018-02-02T05:47:25.493Z,98808.82
2018-02-02T05:49:53.042Z,98802.94
2018-02-02T05:52:20.760Z,98807.70
2018-02-02T05:54:48.370Z,98802.24
2018-02-02T05:57:16.028Z,98812.23
2018-02-02T05:59:43.558Z,98814.88
2018-02-02T06:02:11.363Z,98824.09
2018-02-02T06:04:38.930Z,98822.55
2018-02-02T06:07:06.490Z,98828.02
2018-02-02T06:09:34.026Z,98834.89
2018-02-02T06:12:01.834Z,98838.67
2018-02-02T06:14:29.365Z,98845.30
2018-02-02T06:16:56.970Z,98845.50
2018-02-02T06:19:36.531Z,98844.59
2018-02-02T06:22:04.349Z,98835.93
2018-02-02T06:24:32.066Z,98840.77
2018-02-02T06:26:59.622Z,98834.55
2018-02-02T06:29:27.403Z,98832.15
2018-02-02T06:31:54.978Z,98841.87
2018-02-02T06:34:22.509Z,98852.16
2018-02-02T06:36:50.086Z,98849.30
2018-02-02T06:39:17.714Z,98854.52
2018-02-02T06:41:45.282Z,98859.03
2018-02-02T06:44:12.901Z,98847.64
2018-02-02T06:46:40.506Z,98855.09
2018-02-02T06:49:08.046Z,98839.94
2018-02-02T06:51:35.767Z,98842.09
2018-02-02T06:54:03.487Z,98832.77
2018-02-02T06:56:31.026Z,98835.64
2018-02-02T06:58:58.579Z,98835.36
2018-02-02T07:01:26.229Z,98846.78
2018-02-02T07:03:53.959Z,98834.03
2018-02-02T07:06:21.522Z,98831.16
2018-02-02T07:08:49.099Z,98833.55
2018-02-02T07:11:17.669Z,98841.52
2018-02-02T07:13:45.428Z,98849.69
2018-02-02T07:16:13.601Z,98851.22
2018-02-02T07:18:41.158Z,98850.59
2018-02-02T07:21:08.806Z,98847.27
2018-02-02T07:23:36.404Z,98837.34
2018-02-02T07:26:03.949Z,98841.23
2018-02-02T07:28:31.493Z,98843.21
2018-02-02T07:30:59.030Z,98848.92
2018-02-02T07:33:26.732Z,98850.44
2018-02-02T07:35:54.477Z,98857.18
2018-02-02T07:38:22.022Z,98853.59
2018-02-02T07:40:49.622Z,98846.78
2018-02-02T07:43:17.344Z,98847.98
2018-02-02T07:45:45.075Z,98841.55
2018-02-02T07:48:12.830Z,98843.36
2018-02-02T07:50:40.378Z,98848.30
2018-02-02T07:53:07.911Z,98843.65
2018-02-02T07:55:35.506Z,98844.19
2018-02-02T07:58:03.306Z,98840.17
2018-02-02T08:00:31.471Z,98841.48
2018-02-02T08:02:59.137Z,98831.88
2018-02-02T08:05:26.671Z,98827.61
2018-02-02T08:07:54.214Z,98832.55
2018-02-02T08:10:21.775Z,98841.31
2018-02-02T08:12:49.357Z,98840.41
2018-02-02T08:15:17.091Z,98847.47
2018-02-02T08:17:44.714Z,98843.39
2018-02-02T08:20:12.263Z,98837.95
2018-02-02T08:22:39.802Z,98832.16
2018-02-02T08:25:07.354Z,98826.33
2018-02-02T08:27:35.015Z,98828.73
2018-02-02T08:30:02.628Z,98828.31
2018-02-02T08:32:30.174Z,98831.08
2018-02-02T08:34:57.767Z,98835.64
2018-02-02T08:37:25.318Z,98830.46
2018-02-02T08:39:53.007Z,98833.84
2018-02-02T08:42:20.727Z,98822.34
2018-02-02T08:44:48.270Z,98836.74
2018-02-02T08:47:15.858Z,98841.83
2018-02-02T08:49:43.450Z,98841.30
2018-02-02T08:52:11.085Z,98840.84
2018-02-02T08:54:38.808Z,98839.45
2018-02-02T08:57:06.434Z,98838.50
2018-02-02T08:59:33.990Z,98836.59
2018-02-02T09:02:06.694Z,98839.38
2018-02-02T09:04:34.290Z,98837.56
2018-02-02T09:07:01.836Z,98840.88
2018-02-02T09:09:29.390Z,98839.38
2018-02-02T09:11:56.939Z,98833.42
2018-02-02T09:14:24.551Z,98832.76
2018-02-02T09:16:52.110Z,98831.09
2018-02-02T09:19:19.642Z,98826.44
2018-02-02T09:21:53.949Z,98824.53
2018-02-02T09:24:21.523Z,98818.32
2018-02-02T09:26:49.187Z,98815.28
2018-02-02T09:29:16.733Z,98812.15
2018-02-02T09:31:44.270Z,98816.45
2018-02-02T09:34:11.866Z,98806.49
2018-02-02T09:36:39.554Z,98802.95
2018-02-02T09:39:07.126Z,98796.37
2018-02-02T09:41:34.675Z,98795.02
2018-02-02T09:44:02.360Z,98786.13
2018-02-02T09:46:30.030Z,98790.98
2018-02-02T09:48:57.770Z,98784.16
2018-02-02T09:51:25.735Z,98777.59
2018-02-02T09:53:53.286Z,98768.45
2018-02-02T09:56:21.100Z,98767.45
2018-02-02T09:58:48.819Z,98762.12
2018-02-02T10:01:16.891Z,98764.36
2018-02-02T10:03:45.026Z,98763.12
2018-02-02T10:06:12.669Z,98762.36
2018-02-02T10:08:40.261Z,98751.06
2018-02-02T10:11:07.838Z,98745.27
2018-02-02T10:13:35.415Z,98734.63
2018-02-02T10:16:02.958Z,98730.32
2018-02-02T10:18:30.502Z,98722.83
2018-02-02T10:20:58.059Z,98726.39
2018-02-02T10:23:25.799Z,98726.44
2018-02-02T10:25:53.517Z,98721.48
2018-02-02T10:28:21.062Z,98712.59
2018-02-02T10:30:48.654Z,98716.31
2018-02-02T10:33:16.200Z,98715.78
2018-02-02T10:35:43.747Z,98715.28
2018-02-02T10:38:11.302Z,98708.02
2018-02-02T10:40:38.886Z,98703.38
2018-02-02T10:43:06.642Z,98696.95
2018-02-02T10:45:34.173Z,98701.31
2018-02-02T10:48:01.782Z,98708.22
2018-02-02T10:50:29.314Z,98708.10
2018-02-02T10:52:56.986Z,98709.83
2018-02-02T10:55:24.731Z,98701.04
2018-02-02T10:57:52.304Z,98701.83
2018-02-02T11:00:19.880Z,98700.74
2018-02-02T11:02:52.970Z,98699.13
2018-02-02T11:05:20.601Z,98700.07
2018-02-02T11:07:48.171Z,98699.81
2018-02-02T11:10:15.757Z,98695.33
2018-02-02T11:12:43.474Z,98703.83
2018-02-02T11:15:11.095Z,98700.97
2018-02-02T11:17:39.082Z,98706.31
2018-02-02T11:20:06.611Z,98709.12
2018-02-02T11:22:34.269Z,98697.63
2018-02-02T11:25:01.971Z,98705.73
2018-02-02T11:27:31.048Z,98700.89
2018-02-02T11:30:03.925Z,98704.55
2018-02-02T11:32:31.501Z,98705.92
2018-02-02T11:34:59.078Z,98711.98
2018-02-02T11:37:27.535Z,98701.41
2018-02-02T11:39:55.142Z,98699.31
2018-02-02T11:42:22.818Z,98705.37
2018-02-02T11:44:50.426Z,98696.13
2018-02-02T11:47:18.010Z,98695.20
2018-02-02T11:49:45.675Z,98702.46
2018-02-02T11:52:13.213Z,98699.37
2018-02-02T11:54:40.770Z,98699.30
2018-02-02T11:57:08.356Z,98699.05
2018-02-02T11:59:35.890Z,98700.14
2018-02-02T12:02:03.432Z,98705.77
2018-02-02T12:04:31.065Z,98699.62
2018-02-02T12:06:58.799Z,98702.11
2018-02-02T12:09:26.325Z,98702.91
2018-02-02T12:11:53.925Z,98699.73
2018-02-02T12:14:21.459Z,98709.45
2018-02-02T12:16:49.058Z,98703.91
2018-02-02T12:19:16.630Z,98706.45
2018-02-02T12:21:46.181Z,98701.43
2018-02-02T12:24:23.651Z,98696.33
2018-02-02T12:26:56.398Z,98699.29
2018-02-02T12:32:47.599Z,98693.48
2018-02-02T12:35:15.872Z,98699.59
2018-02-02T12:37:43.459Z,98693.52
2018-02-02T12:40:11.043Z,98685.27
2018-02-02T12:42:38.805Z,98683.54
2018-02-02T12:45:06.398Z,98675.12
2018-02-02T12:47:35.946Z,98670.48
2018-02-02T12:50:07.410Z,98680.20
2018-02-02T12:52:35.195Z,98671.28
2018-02-02T12:55:02.738Z,98680.15
2018-02-02T12:57:30.293Z,98678.23
2018-02-02T12:59:57.832Z,98679.29
2018-02-02T13:02:25.406Z,98681.38
2018-02-02T13:04:52.941Z,98679.59
2018-02-02T13:07:20.802Z,98683.97
2018-02-02T13:09:48.345Z,98685.45
2018-02-02T13:12:15.881Z,98686.56
2018-02-02T13:14:43.426Z,98685.42
2018-02-02T13:17:10.962Z,98682.02
2018-02-02T13:19:38.516Z,98688.05
2018-02-02T13:22:06.058Z,98694.62
2018-02-02T13:24:33.827Z,98694.91
2018-02-02T13:27:01.370Z,98686.91
2018-02-02T13:29:29.140Z,98693.17
2018-02-02T13:31:56.980Z,98694.09
2018-02-02T13:34:24.518Z,98692.52
2018-02-02T13:36:52.110Z,98695.78
2018-02-02T13:39:19.739Z,98693.72
2018-02-02T13:41:47.285Z,98690.20
2018-02-02T13:44:14.833Z,98689.41
2018-02-02T13:46:42.378Z,98691.47
2018-02-02T13:49:10.008Z,98688.64
2018-02-02T13:51:37.577Z,98675.91
2018-02-02T13:54:05.122Z,98678.59
2018-02-02T13:56:32.658Z,98671.73
2018-02-02T13:59:00.210Z,98674.35
2018-02-02T14:01:27.752Z,98670.28
2018-02-02T14:03:55.288Z,98669.88
2018-02-02T14:06:22.834Z,98660.45
2018-02-02T14:08:50.370Z,98656.98
2018-02-02T14:11:17.922Z,98649.56
2018-02-02T14:13:45.474Z,98653.25
2018-02-02T14:16:13.205Z,98643.02
2018-02-02T14:18:40.758Z,98652.06
2018-02-02T14:21:08.539Z,98647.74
2018-02-02T14:23:36.112Z,98646.05
2018-02-02T14:26:03.690Z,98634.26
2018-02-02T14:28:31.248Z,98639.48
2018-02-02T14:30:58.796Z,98637.23
2018-02-02T14:33:26.524Z,98627.89
2018-02-02T14:35:54.342Z,98632.33
2018-02-02T14:38:21.946Z,98630.69
2018-02-02T14:40:49.490Z,98629.73
2018-02-02T14:43:17.034Z,98635.20
2018-02-02T14:45:44.597Z,98625.07
2018-02-02T14:48:12.137Z,98620.48
2018-02-02T14:50:39.690Z,98614.61
2018-02-02T14:53:07.466Z,98611.67
2018-02-02T14:55:35.007Z,98615.44
2018-02-02T14:58:02.764Z,98614.45
2018-02-02T15:00:30.330Z,98614.22
2018-02-02T15:02:57.882Z,98603.18
2018-02-02T15:05:25.420Z,98602.38
2018-02-02T15:07:52.982Z,98613.98
2018-02-02T15:10:20.530Z,98624.78
2018-02-02T15:12:48.172Z,98627.72
2018-02-02T15:15:15.722Z,98621.35
2018-02-02T15:17:43.255Z,98619.14
2018-02-02T15:20:10.848Z,98610.81
2018-02-02T15:25:40.146Z,98625.10
2018-02-02T15:28:07.935Z,98606.70
2018-02-02T15:30:35.486Z,98604.91
2018-02-02T15:33:03.034Z,98595.94
2018-02-02T15:35:30.690Z,98606.22
2018-02-02T15:37:58.239Z,98605.51
2018-02-02T15:40:26.025Z,98598.78
2018-02-02T15:42:53.634Z,98594.75
2018-02-02T15:45:21.267Z,98587.47
2018-02-02T15:47:48.866Z,98581.18
2018-02-02T15:50:16.430Z,98573.42
2018-02-02T15:52:43.966Z,98582.21
2018-02-02T15:55:11.521Z,98583.20
2018-02-02T15:57:39.249Z,98588.80
2018-02-02T16:00:07.014Z,98593.30
2018-02-02T16:02:34.559Z,98606.73
2018-02-02T16:05:02.098Z,98612.14
2018-02-02T16:07:29.823Z,98616.28
2018-02-02T16:09:57.441Z,98611.00
2018-02-02T16:12:25.159Z,98614.37
2018-02-02T16:14:52.699Z,98620.10
2018-02-02T16:17:20.290Z,98610.14
2018-02-02T16:19:47.826Z,98616.25
2018-02-02T16:22:15.534Z,98608.80
2018-02-02T16:24:43.097Z,98611.98
2018-02-02T16:27:10.643Z,98608.64
2018-02-02T16:29:38.210Z,98618.89
2018-02-02T16:32:05.754Z,98626.62
2018-02-02T16:34:33.624Z,98624.94
2018-02-02T16:37:01.412Z,98621.08
2018-02-02T16:39:29.046Z,98624.23
2018-02-02T16:41:56.645Z,98610.45
2018-02-02T16:44:24.226Z,98619.84
2018-02-02T16:46:51.827Z,98618.59
2018-02-02T16:49:19.410Z,98627.25
2018-02-02T16:51:47.043Z,98624.89
2018-02-02T16:54:14.643Z,98630.49
2018-02-02T16:56:42.226Z,98630.81
2018-02-02T16:59:09.863Z,98636.86
2018-02-02T17:01:37.523Z,98641.44
2018-02-02T17:04:05.170Z,98648.75
2018-02-02T17:06:32.801Z,98640.66
2018-02-02T17:09:00.383Z,98645.62
2018-02-02T17:11:27.990Z,98641.61
2018-02-02T17:13:55.598Z,98641.50
2018-02-02T17:16:23.195Z,98640.60
2018-02-02T17:18:50.873Z,98646.87
2018-02-02T17:21:18.444Z,98646.51
2018-02-02T17:23:46.179Z,98644.12
2018-02-02T17:26:13.896Z,98650.27
2018-02-02T17:28:41.473Z,98651.56
2018-02-02T17:31:09.014Z,98651.25
2018-02-02T17:33:36.655Z,98652.36
2018-02-02T17:36:04.369Z,98656.84
2018-02-02T17:38:31.934Z,98658.14
2018-02-02T17:40:59.667Z,98653.66
2018-02-02T17:43:27.390Z,98650.73
2018-02-02T17:45:54.929Z,98655.38
2018-02-02T17:48:22.533Z,98655.43
2018-02-02T17:50:50.122Z,98653.72
2018-02-02T17:53:17.698Z,98658.35
2018-02-02T17:55:45.242Z,98661.75
2018-02-02T17:58:12.927Z,98654.49
2018-02-02T18:00:45.883Z,98642.50
2018-02-02T18:03:15.926Z,98644.68
2018-02-02T18:05:43.614Z,98643.33
2018-02-02T18:08:11.205Z,98644.98
2018-02-02T18:10:39.052Z,98645.88
2018-02-02T18:13:06.654Z,98647.02
2018-02-02T18:15:34.237Z,98640.34
2018-02-02T18:18:01.783Z,98633.77
2018-02-02T18:20:29.342Z,98624.88
2018-02-02T18:22:57.013Z,98618.87
2018-02-02T18:25:24.561Z,98625.70
2018-02-02T18:27:52.102Z,98625.03
2018-02-02T18:30:19.794Z,98618.25
2018-02-02T18:32:47.344Z,98611.94
2018-02-02T18:35:15.022Z,98617.27
2018-02-02T18:37:42.585Z,98622.09
2018-02-02T18:40:10.339Z,98621.78
2018-02-02T18:42:37.886Z,98620.48
2018-02-02T18:45:05.446Z,98622.00
2018-02-02T18:47:33.042Z,98614.66
2018-02-02T18:50:00.731Z,98618.55
2018-02-02T18:52:28.278Z,98621.17
2018-02-02T18:54:55.825Z,98618.45
2018-02-02T18:57:23.582Z,98612.15
2018-02-02T18:59:51.403Z,98603.59
2018-02-02T19:02:19.126Z,98612.19
2018-02-02T19:04:46.734Z,98614.69
2018-02-02T19:07:14.275Z,98608.97
2018-02-02T19:09:41.864Z,98612.30
2018-02-02T19:12:09.422Z,98616.46
2018-02-02T19:14:37.000Z,98617.25
2018-02-02T19:17:04.726Z,98615.55
2018-02-02T19:19:32.271Z,98618.81
2018-02-02T19:22:00.062Z,98630.23
2018-02-02T19:24:27.607Z,98622.15
2018-02-02T19:26:55.226Z,98624.34
2018-02-02T19:29:22.944Z,98614.81
2018-02-02T19:31:50.634Z,98618.92
2018-02-02T19:34:18.229Z,98611.30
2018-02-02T19:36:45.811Z,98619.51
2018-02-02T19:39:13.454Z,98623.83
2018-02-02T19:41:41.005Z,98613.66
2018-02-02T19:44:08.627Z,98615.59
2018-02-02T19:46:36.441Z,98616.46
2018-02-02T19:49:04.014Z,98609.53
2018-02-02T19:51:31.562Z,98615.84
2018-02-02T19:53:59.176Z,98614.27
2018-02-02T19:56:26.770Z,98608.86
2018-02-02T19:58:54.369Z,98610.42
2018-02-02T20:01:21.911Z,98606.20
2018-02-02T20:03:49.665Z,98599.42
2018-02-02T20:06:17.283Z,98593.53
2018-02-02T20:08:44.974Z,98599.47
2018-02-02T20:11:12.548Z,98600.83
2018-02-02T20:13:40.238Z,98605.63
2018-02-02T20:16:07.830Z,98597.08
2018-02-02T20:18:35.454Z,98597.17
2018-02-02T20:21:03.165Z,98590.81
2018-02-02T20:23:30.909Z,98592.91
2018-02-02T20:25:58.502Z,98591.65
2018-02-02T20:28:26.038Z,98589.05
2018-02-02T20:30:53.637Z,98596.04
2018-02-02T20:33:21.178Z,98591.69
2018-02-02T20:35:48.731Z,98593.83
2018-02-02T20:38:16.415Z,98594.24
2018-02-02T20:40:43.974Z,98596.69
2018-02-02T20:43:11.518Z,98590.02
2018-02-02T20:45:39.064Z,98594.72
2018-02-02T20:48:06.790Z,98598.06
2018-02-02T20:50:34.497Z,98600.14
2018-02-02T20:53:02.098Z,98604.11
2018-02-02T20:55:29.941Z,98601.25
2018-02-02T20:57:57.687Z,98591.75
2018-02-02T21:00:25.479Z,98592.17
2018-02-02T21:02:53.078Z,98581.56
2018-02-02T21:05:20.815Z,98580.09
2018-02-02T21:07:48.358Z,98581.41
2018-02-02T21:10:15.958Z,98576.56
2018-02-02T21:12:43.570Z,98582.67
2018-02-02T21:15:11.176Z,98582.45
2018-02-02T21:17:38.733Z,98588.05
2018-02-02T21:20:06.342Z,98588.52
2018-02-02T21:22:33.885Z,98597.06
2018-02-02T21:25:01.426Z,98592.86
2018-02-02T21:27:28.986Z,98586.80
2018-02-02T21:29:56.534Z,98586.64
2018-02-02T21:32:24.141Z,98583.87
2018-02-02T21:34:51.686Z,98584.77
2018-02-02T21:37:19.405Z,98585.59
2018-02-02T21:39:46.970Z,98584.98
2018-02-02T21:42:14.510Z,98584.81
2018-02-02T21:44:42.202Z,98575.74
2018-02-02T21:47:09.754Z,98578.27
2018-02-02T21:49:37.294Z,98576.96
2018-02-02T21:52:04.846Z,98567.80
2018-02-02T21:54:32.394Z,98569.16
2018-02-02T21:56:59.987Z,98553.81
2018-02-02T21:59:27.806Z,98553.31
2018-02-02T22:01:55.437Z,98542.16
2018-02-02T22:04:23.009Z,98534.65
2018-02-02T22:06:50.561Z,98539.13
2018-02-02T22:09:18.111Z,98537.72
2018-02-02T22:11:45.798Z,98546.05
2018-02-02T22:14:13.355Z,98544.02
2018-02-02T22:16:41.034Z,98538.85
2018-02-02T22:19:08.618Z,98530.87
2018-02-02T22:21:36.261Z,98526.86
2018-02-02T22:24:03.818Z,98524.18
2018-02-02T22:26:31.394Z,98524.70
2018-02-02T22:28:58.970Z,98534.53
2018-02-02T22:31:26.501Z,98538.48
2018-02-02T22:33:54.051Z,98538.86
2018-02-02T22:36:21.664Z,98540.16
2018-02-02T22:38:49.222Z,98550.19
2018-02-02T22:41:16.767Z,98552.61
2018-02-02T22:43:44.402Z,98556.34
2018-02-02T22:46:11.941Z,98543.31
2018-02-02T22:48:39.489Z,98554.44
2018-02-02T22:51:07.028Z,98560.86
2018-02-02T22:53:34.647Z,98563.98
2018-02-02T22:56:02.190Z,98559.61
2018-02-02T22:58:29.746Z,98549.95
2018-02-02T23:00:57.290Z,98561.72
2018-02-02T23:03:24.835Z,98558.45
2018-02-02T23:05:52.406Z,98554.78
2018-02-02T23:08:19.950Z,98561.35
2018-02-02T23:10:47.522Z,98568.13
2018-02-02T23:13:15.076Z,98566.58
2018-02-02T23:15:42.629Z,98573.92
2018-02-02T23:18:10.185Z,98568.82
2018-02-02T23:20:37.783Z,98574.66
2018-02-02T23:23:05.338Z,98576.70
2018-02-02T23:25:32.874Z,98582.39
2018-02-02T23:28:00.462Z,98582.33
2018-02-02T23:30:28.008Z,98587.28
2018-02-02T23:32:55.581Z,98582.59
2018-02-02T23:35:23.189Z,98591.13
2018-02-02T23:37:50.730Z,98567.80
2018-02-02T23:40:18.290Z,98574.72
2018-02-02T23:42:45.822Z,98568.89
2018-02-02T23:45:13.385Z,98563.24
2018-02-02T23:47:40.943Z,98556.84
2018-02-02T23:50:08.514Z,98550.47
2018-02-02T23:52:36.062Z,98557.13
2018-02-02T23:55:03.618Z,98553.02
2018-02-02T23:57:31.241Z,98544.61
2018-02-02T23:59:58.868Z,98527.26
